sensor_id;sensor_type;location;lat;lon;timestamp;temperature;humidity
52459;DHT22;38372;52.902;6.024;2022-12-20T00:00:56;10.10;99.90
52459;DHT22;38372;52.902;6.024;2022-12-20T00:03:22;10.10;99.90
52459;DHT22;38372;52.902;6.024;2022-12-20T00:05:48;10.10;99.90
52459;DHT22;38372;52.902;6.024;2022-12-20T00:08:14;10.20;99.90
52459;DHT22;38372;52.902;6.024;2022-12-20T00:10:43;10.10;99.90
52459;DHT22;38372;52.902;6.024;2022-12-20T00:13:10;10.10;99.90
52459;DHT22;38372;52.902;6.024;2022-12-20T00:15:36;10.10;99.90
52459;DHT22;38372;52.902;6.024;2022-12-20T00:18:02;10.10;99.90
52459;DHT22;38372;52.902;6.024;2022-12-20T00:20:28;10.10;99.90
52459;DHT22;38372;52.902;6.024;2022-12-20T00:22:54;10.10;99.90
52459;DHT22;38372;52.902;6.024;2022-12-20T00:25:21;10.10;99.90
52459;DHT22;38372;52.902;6.024;2022-12-20T00:27:47;10.00;99.90
52459;DHT22;38372;52.902;6.024;2022-12-20T00:30:14;10.00;99.90
52459;DHT22;38372;52.902;6.024;2022-12-20T00:32:40;10.00;99.90
52459;DHT22;38372;52.902;6.024;2022-12-20T00:35:06;10.00;99.90
52459;DHT22;38372;52.902;6.024;2022-12-20T00:37:32;10.00;99.90
52459;DHT22;38372;52.902;6.024;2022-12-20T00:39:58;10.00;99.90
52459;DHT22;38372;52.902;6.024;2022-12-20T00:42:24;10.00;99.90
52459;DHT22;38372;52.902;6.024;2022-12-20T00:44:49;9.90;99.90
52459;DHT22;38372;52.902;6.024;2022-12-20T00:47:15;9.90;99.90
52459;DHT22;38372;52.902;6.024;2022-12-20T00:49:41;10.00;99.90
52459;DHT22;38372;52.902;6.024;2022-12-20T00:52:07;9.90;99.90
52459;DHT22;38372;52.902;6.024;2022-12-20T00:54:33;9.90;99.90
52459;DHT22;38372;52.902;6.024;2022-12-20T00:56:58;10.00;99.90
52459;DHT22;38372;52.902;6.024;2022-12-20T00:59:24;10.00;99.90
52459;DHT22;38372;52.902;6.024;2022-12-20T01:01:50;10.00;99.90
52459;DHT22;38372;52.902;6.024;2022-12-20T01:04:16;10.00;99.90
52459;DHT22;38372;52.902;6.024;2022-12-20T01:06:42;10.10;99.90
52459;DHT22;38372;52.902;6.024;2022-12-20T01:09:10;10.00;99.90
52459;DHT22;38372;52.902;6.024;2022-12-20T01:11:36;10.00;99.90
52459;DHT22;38372;52.902;6.024;2022-12-20T01:14:07;10.00;99.90
52459;DHT22;38372;52.902;6.024;2022-12-20T01:16:40;10.00;99.90
52459;DHT22;38372;52.902;6.024;2022-12-20T01:19:08;10.00;99.90
52459;DHT22;38372;52.902;6.024;2022-12-20T01:21:35;10.10;99.90
52459;DHT22;38372;52.902;6.024;2022-12-20T01:24:00;10.10;99.90
52459;DHT22;38372;52.902;6.024;2022-12-20T01:26:28;10.10;99.90
52459;DHT22;38372;52.902;6.024;2022-12-20T01:28:56;10.10;99.90
52459;DHT22;38372;52.902;6.024;2022-12-20T01:31:22;10.20;99.90
52459;DHT22;38372;52.902;6.024;2022-12-20T01:33:49;10.10;99.90
52459;DHT22;38372;52.902;6.024;2022-12-20T01:36:18;10.10;99.90
52459;DHT22;38372;52.902;6.024;2022-12-20T01:38:45;10.20;99.90
52459;DHT22;38372;52.902;6.024;2022-12-20T01:41:18;10.10;99.90
52459;DHT22;38372;52.902;6.024;2022-12-20T01:46:18;10.10;99.90
52459;DHT22;38372;52.902;6.024;2022-12-20T01:48:51;10.20;99.90
52459;DHT22;38372;52.902;6.024;2022-12-20T01:51:18;10.30;99.90
52459;DHT22;38372;52.902;6.024;2022-12-20T01:53:47;10.30;99.90
52459;DHT22;38372;52.902;6.024;2022-12-20T01:56:15;10.30;99.90
52459;DHT22;38372;52.902;6.024;2022-12-20T01:58:42;10.40;99.90
52459;DHT22;38372;52.902;6.024;2022-12-20T02:01:10;10.40;99.90
52459;DHT22;38372;52.902;6.024;2022-12-20T02:03:36;10.40;99.90
52459;DHT22;38372;52.902;6.024;2022-12-20T02:06:22;10.40;99.90
52459;DHT22;38372;52.902;6.024;2022-12-20T02:08:49;10.40;99.90
52459;DHT22;38372;52.902;6.024;2022-12-20T02:19:53;10.40;99.90
52459;DHT22;38372;52.902;6.024;2022-12-20T02:30:21;10.30;99.90
52459;DHT22;38372;52.902;6.024;2022-12-20T02:32:58;10.20;99.90
52459;DHT22;38372;52.902;6.024;2022-12-20T02:35:28;10.10;99.90
52459;DHT22;38372;52.902;6.024;2022-12-20T02:37:57;10.10;99.90
52459;DHT22;38372;52.902;6.024;2022-12-20T02:40:28;10.00;99.90
52459;DHT22;38372;52.902;6.024;2022-12-20T02:42:58;9.90;99.90
52459;DHT22;38372;52.902;6.024;2022-12-20T02:45:28;9.90;99.90
52459;DHT22;38372;52.902;6.024;2022-12-20T02:48:09;9.90;99.90
52459;DHT22;38372;52.902;6.024;2022-12-20T02:50:45;9.90;99.90
52459;DHT22;38372;52.902;6.024;2022-12-20T02:53:14;9.90;99.90
52459;DHT22;38372;52.902;6.024;2022-12-20T02:56:11;9.80;99.90
52459;DHT22;38372;52.902;6.024;2022-12-20T03:01:31;9.70;99.90
52459;DHT22;38372;52.902;6.024;2022-12-20T03:03:58;9.70;99.90
52459;DHT22;38372;52.902;6.024;2022-12-20T03:06:25;9.70;99.90
52459;DHT22;38372;52.902;6.024;2022-12-20T03:08:51;9.70;99.90
52459;DHT22;38372;52.902;6.024;2022-12-20T03:11:17;9.70;99.90
52459;DHT22;38372;52.902;6.024;2022-12-20T03:13:42;9.70;99.90
52459;DHT22;38372;52.902;6.024;2022-12-20T03:16:08;9.70;99.90
52459;DHT22;38372;52.902;6.024;2022-12-20T03:18:35;9.70;99.90
52459;DHT22;38372;52.902;6.024;2022-12-20T03:21:01;9.70;99.90
52459;DHT22;38372;52.902;6.024;2022-12-20T03:23:27;9.70;99.90
52459;DHT22;38372;52.902;6.024;2022-12-20T03:25:53;9.70;99.90
52459;DHT22;38372;52.902;6.024;2022-12-20T03:28:19;9.70;99.90
52459;DHT22;38372;52.902;6.024;2022-12-20T03:30:46;9.70;99.90
52459;DHT22;38372;52.902;6.024;2022-12-20T03:33:11;9.70;99.90
52459;DHT22;38372;52.902;6.024;2022-12-20T03:35:37;9.70;99.90
52459;DHT22;38372;52.902;6.024;2022-12-20T03:38:03;9.70;99.90
52459;DHT22;38372;52.902;6.024;2022-12-20T03:40:29;9.70;99.90
52459;DHT22;38372;52.902;6.024;2022-12-20T03:42:55;9.60;99.90
52459;DHT22;38372;52.902;6.024;2022-12-20T03:45:20;9.60;99.90
52459;DHT22;38372;52.902;6.024;2022-12-20T03:47:46;9.60;99.90
52459;DHT22;38372;52.902;6.024;2022-12-20T03:50:12;9.70;99.90
52459;DHT22;38372;52.902;6.024;2022-12-20T03:52:38;9.70;99.90
52459;DHT22;38372;52.902;6.024;2022-12-20T03:55:05;9.70;99.90
52459;DHT22;38372;52.902;6.024;2022-12-20T03:57:31;9.70;99.90
52459;DHT22;38372;52.902;6.024;2022-12-20T03:59:56;9.70;99.90
52459;DHT22;38372;52.902;6.024;2022-12-20T04:02:23;9.80;99.90
52459;DHT22;38372;52.902;6.024;2022-12-20T04:04:49;9.70;99.90
52459;DHT22;38372;52.902;6.024;2022-12-20T04:07:15;9.80;99.90
52459;DHT22;38372;52.902;6.024;2022-12-20T04:09:41;9.80;99.90
52459;DHT22;38372;52.902;6.024;2022-12-20T04:12:07;9.70;99.90
52459;DHT22;38372;52.902;6.024;2022-12-20T04:14:32;9.80;99.90
52459;DHT22;38372;52.902;6.024;2022-12-20T04:16:58;9.80;99.90
52459;DHT22;38372;52.902;6.024;2022-12-20T04:19:24;9.80;99.90
52459;DHT22;38372;52.902;6.024;2022-12-20T04:21:50;9.80;99.90
52459;DHT22;38372;52.902;6.024;2022-12-20T04:24:16;9.90;99.90
52459;DHT22;38372;52.902;6.024;2022-12-20T04:26:42;9.90;99.90
52459;DHT22;38372;52.902;6.024;2022-12-20T04:29:07;9.90;99.90
52459;DHT22;38372;52.902;6.024;2022-12-20T04:31:33;9.90;99.90
52459;DHT22;38372;52.902;6.024;2022-12-20T04:33:59;10.00;99.90
52459;DHT22;38372;52.902;6.024;2022-12-20T04:36:25;9.90;99.90
52459;DHT22;38372;52.902;6.024;2022-12-20T04:38:51;10.00;99.90
52459;DHT22;38372;52.902;6.024;2022-12-20T04:41:16;10.00;99.90
52459;DHT22;38372;52.902;6.024;2022-12-20T04:43:54;10.00;99.90
52459;DHT22;38372;52.902;6.024;2022-12-20T04:46:22;10.00;99.90
52459;DHT22;38372;52.902;6.024;2022-12-20T04:48:48;10.00;99.90
52459;DHT22;38372;52.902;6.024;2022-12-20T04:51:15;10.10;99.90
52459;DHT22;38372;52.902;6.024;2022-12-20T04:53:41;10.10;99.90
52459;DHT22;38372;52.902;6.024;2022-12-20T04:56:30;10.10;99.90
52459;DHT22;38372;52.902;6.024;2022-12-20T04:58:57;10.10;99.90
52459;DHT22;38372;52.902;6.024;2022-12-20T05:01:24;10.10;99.90
52459;DHT22;38372;52.902;6.024;2022-12-20T05:03:50;10.20;99.90
52459;DHT22;38372;52.902;6.024;2022-12-20T05:06:17;10.20;99.90
52459;DHT22;38372;52.902;6.024;2022-12-20T05:08:43;10.20;99.90
52459;DHT22;38372;52.902;6.024;2022-12-20T05:11:09;10.20;99.90
52459;DHT22;38372;52.902;6.024;2022-12-20T05:13:35;10.20;99.90
52459;DHT22;38372;52.902;6.024;2022-12-20T05:16:01;10.20;99.90
52459;DHT22;38372;52.902;6.024;2022-12-20T05:18:28;10.20;99.90
52459;DHT22;38372;52.902;6.024;2022-12-20T05:20:56;10.30;99.90
52459;DHT22;38372;52.902;6.024;2022-12-20T05:23:40;10.30;99.90
52459;DHT22;38372;52.902;6.024;2022-12-20T05:26:28;10.30;99.90
52459;DHT22;38372;52.902;6.024;2022-12-20T05:28:55;10.30;99.90
52459;DHT22;38372;52.902;6.024;2022-12-20T05:31:21;10.30;99.90
52459;DHT22;38372;52.902;6.024;2022-12-20T05:33:47;10.30;99.90
52459;DHT22;38372;52.902;6.024;2022-12-20T05:36:12;10.30;99.90
52459;DHT22;38372;52.902;6.024;2022-12-20T05:38:38;10.30;99.90
52459;DHT22;38372;52.902;6.024;2022-12-20T05:41:04;10.30;99.90
52459;DHT22;38372;52.902;6.024;2022-12-20T05:43:31;10.40;99.90
52459;DHT22;38372;52.902;6.024;2022-12-20T05:45:57;10.40;99.90
52459;DHT22;38372;52.902;6.024;2022-12-20T05:48:23;10.40;99.90
52459;DHT22;38372;52.902;6.024;2022-12-20T05:50:48;10.40;99.90
52459;DHT22;38372;52.902;6.024;2022-12-20T05:53:16;10.30;99.90
52459;DHT22;38372;52.902;6.024;2022-12-20T05:55:47;10.30;99.90
52459;DHT22;38372;52.902;6.024;2022-12-20T05:58:14;10.40;99.90
52459;DHT22;38372;52.902;6.024;2022-12-20T06:00:40;10.40;99.90
52459;DHT22;38372;52.902;6.024;2022-12-20T06:03:07;10.40;99.90
52459;DHT22;38372;52.902;6.024;2022-12-20T06:05:37;10.40;99.90
52459;DHT22;38372;52.902;6.024;2022-12-20T06:08:04;10.40;99.90
52459;DHT22;38372;52.902;6.024;2022-12-20T06:10:31;10.40;99.90
52459;DHT22;38372;52.902;6.024;2022-12-20T06:12:57;10.40;99.90
52459;DHT22;38372;52.902;6.024;2022-12-20T06:15:23;10.40;99.90
52459;DHT22;38372;52.902;6.024;2022-12-20T06:17:51;10.50;99.90
52459;DHT22;38372;52.902;6.024;2022-12-20T06:20:17;10.50;99.90
52459;DHT22;38372;52.902;6.024;2022-12-20T06:22:43;10.30;99.90
52459;DHT22;38372;52.902;6.024;2022-12-20T06:25:09;10.30;99.90
52459;DHT22;38372;52.902;6.024;2022-12-20T06:27:35;10.20;99.90
52459;DHT22;38372;52.902;6.024;2022-12-20T06:30:03;10.20;99.90
52459;DHT22;38372;52.902;6.024;2022-12-20T06:32:29;10.10;99.90
52459;DHT22;38372;52.902;6.024;2022-12-20T06:34:55;10.10;99.90
52459;DHT22;38372;52.902;6.024;2022-12-20T06:37:21;10.10;99.90
52459;DHT22;38372;52.902;6.024;2022-12-20T06:39:47;10.10;99.90
52459;DHT22;38372;52.902;6.024;2022-12-20T06:42:13;10.00;99.90
52459;DHT22;38372;52.902;6.024;2022-12-20T06:44:38;10.00;99.90
52459;DHT22;38372;52.902;6.024;2022-12-20T06:47:04;10.00;99.90
52459;DHT22;38372;52.902;6.024;2022-12-20T06:49:30;10.00;99.90
52459;DHT22;38372;52.902;6.024;2022-12-20T06:51:56;9.90;99.90
52459;DHT22;38372;52.902;6.024;2022-12-20T06:54:22;9.90;99.90
52459;DHT22;38372;52.902;6.024;2022-12-20T06:56:48;9.90;99.90
52459;DHT22;38372;52.902;6.024;2022-12-20T06:59:13;9.90;99.90
52459;DHT22;38372;52.902;6.024;2022-12-20T07:01:40;9.90;99.90
52459;DHT22;38372;52.902;6.024;2022-12-20T07:04:05;9.90;99.90
52459;DHT22;38372;52.902;6.024;2022-12-20T07:06:31;10.00;99.90
52459;DHT22;38372;52.902;6.024;2022-12-20T07:08:57;10.00;99.90
52459;DHT22;38372;52.902;6.024;2022-12-20T07:11:23;10.00;99.90
52459;DHT22;38372;52.902;6.024;2022-12-20T07:13:53;10.00;99.90
52459;DHT22;38372;52.902;6.024;2022-12-20T07:16:19;10.00;99.90
52459;DHT22;38372;52.902;6.024;2022-12-20T07:18:49;10.00;99.90
52459;DHT22;38372;52.902;6.024;2022-12-20T07:21:15;10.10;99.90
52459;DHT22;38372;52.902;6.024;2022-12-20T07:23:42;10.10;99.90
52459;DHT22;38372;52.902;6.024;2022-12-20T07:26:08;10.10;99.90
52459;DHT22;38372;52.902;6.024;2022-12-20T07:28:34;10.20;99.90
52459;DHT22;38372;52.902;6.024;2022-12-20T07:31:01;10.20;99.90
52459;DHT22;38372;52.902;6.024;2022-12-20T07:33:28;10.20;99.90
52459;DHT22;38372;52.902;6.024;2022-12-20T07:36:03;10.20;99.90
52459;DHT22;38372;52.902;6.024;2022-12-20T07:38:29;10.10;99.90
52459;DHT22;38372;52.902;6.024;2022-12-20T07:40:55;10.20;99.90
52459;DHT22;38372;52.902;6.024;2022-12-20T07:43:22;10.20;99.90
52459;DHT22;38372;52.902;6.024;2022-12-20T07:45:47;10.20;99.90
52459;DHT22;38372;52.902;6.024;2022-12-20T07:48:13;10.20;99.90
52459;DHT22;38372;52.902;6.024;2022-12-20T07:50:40;10.20;99.90
52459;DHT22;38372;52.902;6.024;2022-12-20T07:53:07;10.20;99.90
52459;DHT22;38372;52.902;6.024;2022-12-20T07:55:35;10.20;99.90
52459;DHT22;38372;52.902;6.024;2022-12-20T07:58:05;10.20;99.90
52459;DHT22;38372;52.902;6.024;2022-12-20T08:00:31;10.20;99.90
52459;DHT22;38372;52.902;6.024;2022-12-20T08:03:14;10.20;99.90
52459;DHT22;38372;52.902;6.024;2022-12-20T08:05:46;10.20;99.90
52459;DHT22;38372;52.902;6.024;2022-12-20T08:08:13;10.20;99.90
52459;DHT22;38372;52.902;6.024;2022-12-20T08:10:39;10.20;99.90
52459;DHT22;38372;52.902;6.024;2022-12-20T08:13:06;10.20;99.90
52459;DHT22;38372;52.902;6.024;2022-12-20T08:15:34;10.20;99.90
52459;DHT22;38372;52.902;6.024;2022-12-20T08:18:00;10.20;99.90
52459;DHT22;38372;52.902;6.024;2022-12-20T08:20:26;10.20;99.90
52459;DHT22;38372;52.902;6.024;2022-12-20T08:22:52;10.20;99.90
52459;DHT22;38372;52.902;6.024;2022-12-20T08:25:18;10.20;99.90
52459;DHT22;38372;52.902;6.024;2022-12-20T08:27:46;10.20;99.90
52459;DHT22;38372;52.902;6.024;2022-12-20T08:30:12;10.20;99.90
52459;DHT22;38372;52.902;6.024;2022-12-20T08:32:38;10.30;99.90
52459;DHT22;38372;52.902;6.024;2022-12-20T08:35:05;10.30;99.90
52459;DHT22;38372;52.902;6.024;2022-12-20T08:37:32;10.30;99.90
52459;DHT22;38372;52.902;6.024;2022-12-20T08:39:57;10.40;99.90
52459;DHT22;38372;52.902;6.024;2022-12-20T08:42:26;10.40;99.90
52459;DHT22;38372;52.902;6.024;2022-12-20T08:44:52;10.40;99.90
52459;DHT22;38372;52.902;6.024;2022-12-20T08:47:17;10.50;99.90
52459;DHT22;38372;52.902;6.024;2022-12-20T08:49:44;10.40;99.90
52459;DHT22;38372;52.902;6.024;2022-12-20T08:52:09;10.50;99.90
52459;DHT22;38372;52.902;6.024;2022-12-20T08:54:35;10.40;99.90
52459;DHT22;38372;52.902;6.024;2022-12-20T08:57:01;10.50;99.90
52459;DHT22;38372;52.902;6.024;2022-12-20T08:59:27;10.50;99.90
52459;DHT22;38372;52.902;6.024;2022-12-20T09:01:53;10.50;99.90
52459;DHT22;38372;52.902;6.024;2022-12-20T09:04:20;10.50;99.90
52459;DHT22;38372;52.902;6.024;2022-12-20T09:06:46;10.50;99.90
52459;DHT22;38372;52.902;6.024;2022-12-20T09:09:12;10.50;99.90
52459;DHT22;38372;52.902;6.024;2022-12-20T09:11:38;10.50;99.90
52459;DHT22;38372;52.902;6.024;2022-12-20T09:14:04;10.50;99.90
52459;DHT22;38372;52.902;6.024;2022-12-20T09:16:31;10.50;99.90
52459;DHT22;38372;52.902;6.024;2022-12-20T09:18:59;10.60;99.90
52459;DHT22;38372;52.902;6.024;2022-12-20T09:21:25;10.60;99.90
52459;DHT22;38372;52.902;6.024;2022-12-20T09:23:52;10.60;99.90
52459;DHT22;38372;52.902;6.024;2022-12-20T09:26:19;10.60;99.90
52459;DHT22;38372;52.902;6.024;2022-12-20T09:28:46;10.60;99.90
52459;DHT22;38372;52.902;6.024;2022-12-20T09:31:15;10.70;99.90
52459;DHT22;38372;52.902;6.024;2022-12-20T09:33:42;10.60;99.90
52459;DHT22;38372;52.902;6.024;2022-12-20T09:36:16;10.60;99.90
52459;DHT22;38372;52.902;6.024;2022-12-20T09:38:42;10.70;99.90
52459;DHT22;38372;52.902;6.024;2022-12-20T09:41:20;10.60;99.90
52459;DHT22;38372;52.902;6.024;2022-12-20T09:43:47;10.60;99.90
52459;DHT22;38372;52.902;6.024;2022-12-20T09:46:14;10.60;99.90
52459;DHT22;38372;52.902;6.024;2022-12-20T09:48:41;10.60;99.90
52459;DHT22;38372;52.902;6.024;2022-12-20T09:56:46;10.50;99.90
52459;DHT22;38372;52.902;6.024;2022-12-20T09:59:18;10.50;99.90
52459;DHT22;38372;52.902;6.024;2022-12-20T10:01:48;10.50;99.90
52459;DHT22;38372;52.902;6.024;2022-12-20T10:04:31;10.50;99.90
52459;DHT22;38372;52.902;6.024;2022-12-20T10:15:45;10.60;99.90
52459;DHT22;38372;52.902;6.024;2022-12-20T10:18:44;10.60;99.90
52459;DHT22;38372;52.902;6.024;2022-12-20T10:21:44;10.60;99.90
52459;DHT22;38372;52.902;6.024;2022-12-20T10:24:17;10.60;99.90
52459;DHT22;38372;52.902;6.024;2022-12-20T10:26:45;10.70;99.90
52459;DHT22;38372;52.902;6.024;2022-12-20T10:29:14;10.70;99.90
52459;DHT22;38372;52.902;6.024;2022-12-20T10:31:40;10.70;99.90
52459;DHT22;38372;52.902;6.024;2022-12-20T10:34:06;10.70;99.90
52459;DHT22;38372;52.902;6.024;2022-12-20T10:36:34;10.70;99.90
52459;DHT22;38372;52.902;6.024;2022-12-20T10:39:03;10.70;99.90
52459;DHT22;38372;52.902;6.024;2022-12-20T10:41:52;10.70;99.90
52459;DHT22;38372;52.902;6.024;2022-12-20T10:44:37;10.70;99.90
52459;DHT22;38372;52.902;6.024;2022-12-20T10:47:49;10.70;99.90
52459;DHT22;38372;52.902;6.024;2022-12-20T10:51:01;10.70;99.90
52459;DHT22;38372;52.902;6.024;2022-12-20T10:53:37;10.60;99.90
52459;DHT22;38372;52.902;6.024;2022-12-20T10:56:40;10.60;99.90
52459;DHT22;38372;52.902;6.024;2022-12-20T10:59:38;10.60;99.90
52459;DHT22;38372;52.902;6.024;2022-12-20T11:02:35;10.70;99.90
52459;DHT22;38372;52.902;6.024;2022-12-20T11:05:29;10.60;99.90
52459;DHT22;38372;52.902;6.024;2022-12-20T11:08:22;10.70;99.90
52459;DHT22;38372;52.902;6.024;2022-12-20T11:11:27;10.70;99.90
52459;DHT22;38372;52.902;6.024;2022-12-20T11:14:18;10.70;99.90
52459;DHT22;38372;52.902;6.024;2022-12-20T11:17:29;10.70;99.90
52459;DHT22;38372;52.902;6.024;2022-12-20T11:20:51;10.70;99.90
52459;DHT22;38372;52.902;6.024;2022-12-20T11:23:52;10.70;99.90
52459;DHT22;38372;52.902;6.024;2022-12-20T11:26:43;10.60;99.90
52459;DHT22;38372;52.902;6.024;2022-12-20T11:36:01;10.60;99.90
52459;DHT22;38372;52.902;6.024;2022-12-20T11:42:32;10.50;99.90
52459;DHT22;38372;52.902;6.024;2022-12-20T11:45:40;10.50;99.90
52459;DHT22;38372;52.902;6.024;2022-12-20T11:51:44;10.50;99.90
52459;DHT22;38372;52.902;6.024;2022-12-20T11:54:38;10.50;99.90
52459;DHT22;38372;52.902;6.024;2022-12-20T11:57:36;10.50;99.90
52459;DHT22;38372;52.902;6.024;2022-12-20T12:00:31;10.50;99.90
52459;DHT22;38372;52.902;6.024;2022-12-20T12:03:16;10.50;99.90
52459;DHT22;38372;52.902;6.024;2022-12-20T12:06:23;10.50;99.90
52459;DHT22;38372;52.902;6.024;2022-12-20T12:09:27;10.50;99.90
52459;DHT22;38372;52.902;6.024;2022-12-20T12:17:36;10.40;99.90
52459;DHT22;38372;52.902;6.024;2022-12-20T12:23:23;10.40;99.90
52459;DHT22;38372;52.902;6.024;2022-12-20T12:25:51;10.40;99.90
52459;DHT22;38372;52.902;6.024;2022-12-20T12:28:19;10.40;99.90
52459;DHT22;38372;52.902;6.024;2022-12-20T12:30:58;10.40;99.90
52459;DHT22;38372;52.902;6.024;2022-12-20T12:33:34;10.40;99.90
52459;DHT22;38372;52.902;6.024;2022-12-20T12:36:19;10.40;99.90
52459;DHT22;38372;52.902;6.024;2022-12-20T12:47:39;10.40;99.90
52459;DHT22;38372;52.902;6.024;2022-12-20T12:52:53;10.50;99.90
52459;DHT22;38372;52.902;6.024;2022-12-20T12:55:48;10.50;99.90
52459;DHT22;38372;52.902;6.024;2022-12-20T13:01:08;10.50;99.90
52459;DHT22;38372;52.902;6.024;2022-12-20T13:11:33;10.50;99.90
52459;DHT22;38372;52.902;6.024;2022-12-20T13:19:33;10.60;99.90
52459;DHT22;38372;52.902;6.024;2022-12-20T13:24:37;10.60;99.90
52459;DHT22;38372;52.902;6.024;2022-12-20T13:40:48;10.50;99.90
52459;DHT22;38372;52.902;6.024;2022-12-20T13:45:49;10.50;99.90
52459;DHT22;38372;52.902;6.024;2022-12-20T13:48:18;10.50;99.90
52459;DHT22;38372;52.902;6.024;2022-12-20T13:50:51;10.50;99.90
52459;DHT22;38372;52.902;6.024;2022-12-20T13:53:20;10.50;99.90
52459;DHT22;38372;52.902;6.024;2022-12-20T13:55:47;10.50;99.90
52459;DHT22;38372;52.902;6.024;2022-12-20T14:00:47;10.50;99.90
52459;DHT22;38372;52.902;6.024;2022-12-20T14:05:44;10.50;99.90
52459;DHT22;38372;52.902;6.024;2022-12-20T14:08:19;10.50;99.90
52459;DHT22;38372;52.902;6.024;2022-12-20T14:10:46;10.50;99.90
52459;DHT22;38372;52.902;6.024;2022-12-20T14:13:21;10.50;99.90
52459;DHT22;38372;52.902;6.024;2022-12-20T14:15:50;10.50;99.90
52459;DHT22;38372;52.902;6.024;2022-12-20T14:20:47;10.50;99.90
52459;DHT22;38372;52.902;6.024;2022-12-20T14:23:23;10.50;99.90
52459;DHT22;38372;52.902;6.024;2022-12-20T14:25:56;10.50;99.90
52459;DHT22;38372;52.902;6.024;2022-12-20T14:28:31;10.50;99.90
52459;DHT22;38372;52.902;6.024;2022-12-20T14:31:00;10.50;99.90
52459;DHT22;38372;52.902;6.024;2022-12-20T14:33:40;10.50;99.90
52459;DHT22;38372;52.902;6.024;2022-12-20T14:36:16;10.50;99.90
52459;DHT22;38372;52.902;6.024;2022-12-20T14:38:50;10.50;99.90
52459;DHT22;38372;52.902;6.024;2022-12-20T14:41:38;10.50;99.90
52459;DHT22;38372;52.902;6.024;2022-12-20T14:44:16;10.50;99.90
52459;DHT22;38372;52.902;6.024;2022-12-20T14:46:53;10.50;99.90
52459;DHT22;38372;52.902;6.024;2022-12-20T14:49:20;10.50;99.90
52459;DHT22;38372;52.902;6.024;2022-12-20T14:51:47;10.50;99.90
52459;DHT22;38372;52.902;6.024;2022-12-20T14:54:26;10.50;99.90
52459;DHT22;38372;52.902;6.024;2022-12-20T14:56:53;10.50;99.90
52459;DHT22;38372;52.902;6.024;2022-12-20T14:59:28;10.40;99.90
52459;DHT22;38372;52.902;6.024;2022-12-20T15:01:54;10.40;99.90
52459;DHT22;38372;52.902;6.024;2022-12-20T15:04:31;10.40;99.90
52459;DHT22;38372;52.902;6.024;2022-12-20T15:06:58;10.40;99.90
52459;DHT22;38372;52.902;6.024;2022-12-20T15:09:24;10.40;99.90
52459;DHT22;38372;52.902;6.024;2022-12-20T15:11:51;10.40;99.90
52459;DHT22;38372;52.902;6.024;2022-12-20T15:14:34;10.40;99.90
52459;DHT22;38372;52.902;6.024;2022-12-20T15:17:05;10.40;99.90
52459;DHT22;38372;52.902;6.024;2022-12-20T15:19:33;10.40;99.90
52459;DHT22;38372;52.902;6.024;2022-12-20T15:21:59;10.40;99.90
52459;DHT22;38372;52.902;6.024;2022-12-20T15:24:27;10.40;99.90
52459;DHT22;38372;52.902;6.024;2022-12-20T15:26:53;10.40;99.90
52459;DHT22;38372;52.902;6.024;2022-12-20T15:29:25;10.40;99.90
52459;DHT22;38372;52.902;6.024;2022-12-20T15:32:36;10.30;99.90
52459;DHT22;38372;52.902;6.024;2022-12-20T15:34:43;10.40;99.90
52459;DHT22;38372;52.902;6.024;2022-12-20T15:37:11;10.40;99.90
52459;DHT22;38372;52.902;6.024;2022-12-20T15:39:39;10.40;99.90
52459;DHT22;38372;52.902;6.024;2022-12-20T15:42:05;10.40;99.90
52459;DHT22;38372;52.902;6.024;2022-12-20T15:44:32;10.40;99.90
52459;DHT22;38372;52.902;6.024;2022-12-20T15:47:00;10.40;99.90
52459;DHT22;38372;52.902;6.024;2022-12-20T15:49:29;10.40;99.90
52459;DHT22;38372;52.902;6.024;2022-12-20T15:51:55;10.40;99.90
52459;DHT22;38372;52.902;6.024;2022-12-20T15:56:50;10.40;99.90
52459;DHT22;38372;52.902;6.024;2022-12-20T15:59:16;10.30;99.90
52459;DHT22;38372;52.902;6.024;2022-12-20T16:01:42;10.40;99.90
52459;DHT22;38372;52.902;6.024;2022-12-20T16:04:17;10.40;99.90
52459;DHT22;38372;52.902;6.024;2022-12-20T16:06:45;10.30;99.90
52459;DHT22;38372;52.902;6.024;2022-12-20T16:09:12;10.30;99.90
52459;DHT22;38372;52.902;6.024;2022-12-20T16:11:38;10.30;99.90
52459;DHT22;38372;52.902;6.024;2022-12-20T16:14:05;10.30;99.90
52459;DHT22;38372;52.902;6.024;2022-12-20T16:16:33;10.30;99.90
52459;DHT22;38372;52.902;6.024;2022-12-20T16:18:59;10.30;99.90
52459;DHT22;38372;52.902;6.024;2022-12-20T16:21:28;10.30;99.90
52459;DHT22;38372;52.902;6.024;2022-12-20T16:23:55;10.30;99.90
52459;DHT22;38372;52.902;6.024;2022-12-20T16:26:22;10.30;99.90
52459;DHT22;38372;52.902;6.024;2022-12-20T16:28:50;10.30;99.90
52459;DHT22;38372;52.902;6.024;2022-12-20T16:31:20;10.30;99.90
52459;DHT22;38372;52.902;6.024;2022-12-20T16:33:47;10.30;99.90
52459;DHT22;38372;52.902;6.024;2022-12-20T16:36:14;10.30;99.90
52459;DHT22;38372;52.902;6.024;2022-12-20T16:38:40;10.20;99.90
52459;DHT22;38372;52.902;6.024;2022-12-20T16:41:28;10.30;99.90
52459;DHT22;38372;52.902;6.024;2022-12-20T16:43:56;10.20;99.90
52459;DHT22;38372;52.902;6.024;2022-12-20T16:46:25;10.30;99.90
52459;DHT22;38372;52.902;6.024;2022-12-20T16:48:52;10.30;99.90
52459;DHT22;38372;52.902;6.024;2022-12-20T16:51:34;10.30;99.90
52459;DHT22;38372;52.902;6.024;2022-12-20T16:54:05;10.20;99.90
52459;DHT22;38372;52.902;6.024;2022-12-20T16:56:31;10.20;99.90
52459;DHT22;38372;52.902;6.024;2022-12-20T16:58:58;10.20;99.90
52459;DHT22;38372;52.902;6.024;2022-12-20T17:01:30;10.20;99.90
52459;DHT22;38372;52.902;6.024;2022-12-20T17:03:56;10.20;99.90
52459;DHT22;38372;52.902;6.024;2022-12-20T17:06:22;10.20;99.90
52459;DHT22;38372;52.902;6.024;2022-12-20T17:08:48;10.20;99.90
52459;DHT22;38372;52.902;6.024;2022-12-20T17:11:20;10.20;99.90
52459;DHT22;38372;52.902;6.024;2022-12-20T17:13:48;10.20;99.90
52459;DHT22;38372;52.902;6.024;2022-12-20T17:16:15;10.20;99.90
52459;DHT22;38372;52.902;6.024;2022-12-20T17:18:43;10.20;99.90
52459;DHT22;38372;52.902;6.024;2022-12-20T17:23:51;10.20;99.90
52459;DHT22;38372;52.902;6.024;2022-12-20T17:26:23;10.20;99.90
52459;DHT22;38372;52.902;6.024;2022-12-20T17:28:52;10.20;99.90
52459;DHT22;38372;52.902;6.024;2022-12-20T17:31:30;10.20;99.90
52459;DHT22;38372;52.902;6.024;2022-12-20T17:33:57;10.20;99.90
52459;DHT22;38372;52.902;6.024;2022-12-20T17:36:23;10.20;99.90
52459;DHT22;38372;52.902;6.024;2022-12-20T17:38:50;10.20;99.90
52459;DHT22;38372;52.902;6.024;2022-12-20T17:41:27;10.20;99.90
52459;DHT22;38372;52.902;6.024;2022-12-20T17:43:54;10.20;99.90
52459;DHT22;38372;52.902;6.024;2022-12-20T17:46:21;10.20;99.90
52459;DHT22;38372;52.902;6.024;2022-12-20T17:48:47;10.20;99.90
52459;DHT22;38372;52.902;6.024;2022-12-20T17:53:39;10.20;99.90